Elkhart, Indiana
Current Conditions -  °F | °C
As of 8:53 AM on Sunday 21 Dec 2014 (Local Time) from KGSH Reporting Station
Haze Haze  
Wind Chill: 23°   Ceiling: 5000
Heat Index: 31°   Visibility: 4mi
Dew Point: 26°   Wind: 8mph
Humidity: 82%   Direction: 160°SSE
Pressure: 30.26"   Gusts: NA
Location:  41.69°N, 85.97°W
Report Text: KGSH 211353Z AUTO 16007KT 4SM HZ OVC050 M01/M03 A3026 RMK AO2 SLP258 T10061033
Loading
Personal Weather Stations






























Interactive Weather Map New forecast layout! Learn more

10-Day Weather Forecast

Advertisements
Track Severe Weather on mobile